X  Zatvorit Metar udaje     LZPP Piešťany Airport
Teplota
1°C Teplota
1°C Rosny bod
100% Vlhkost



Vietor
2 KM/h
1 MPH
0 M/S
1 KTS



Bezvetrie
Se
Aktualne pocasie

Jasno Jasno
Tlak 1028.92 (hPa) - 30.38 (inHg)
Viditelnost 6.2 (mile) - 10 (km)
Letisko
Kod letiska LZPP

Miesto: Piešťany Airport
Vzdialenost: 31 (km)

Metar:
LZPP 270800Z VRB01KT CAVOK 01/01 Q1029

Cas: 27-11-2022 09:00 CET